Vero Beach, Florida
Current Conditions -  °F | °C
As of 4:53 AM on Saturday 25 Oct 2014 (Local Time) from KVRB Reporting Station
Scattered Clouds Scattered Clouds  
Wind Chill: 17°   Ceiling: Unl
Heat Index: 17°   Visibility: 10mi
Dew Point: 15°   Wind: 9mph
Humidity: 90%   Direction: 320°NW
Pressure: 29.91"   Gusts: NA
Location:  27.64°N, 80.39°W
Report Text: KVRB 250853Z AUTO 32008KT 10SM SCT047 17/15 A2991 RMK AO2 SLP126 T01670150 55004
Loading
Personal Weather Stations






























Interactive Weather Map
Tropical Storm Tracking
New forecast layout! Learn more

10-Day Weather Forecast

Advertisements
Track Severe Weather on mobile